sensor_id;sensor_type;location;lat;lon;timestamp;P1;P2;P0
77413;PMS7003;66486;49.992;19.164;2023-03-23T00:01:04;87.25;68.00;41.50
77413;PMS7003;66486;49.992;19.164;2023-03-23T00:03:32;94.75;77.00;45.00
77413;PMS7003;66486;49.992;19.164;2023-03-23T00:05:58;91.00;72.00;42.75
77413;PMS7003;66486;49.992;19.164;2023-03-23T00:08:28;87.00;68.25;38.00
77413;PMS7003;66486;49.992;19.164;2023-03-23T00:10:53;88.33;69.33;40.00
77413;PMS7003;66486;49.992;19.164;2023-03-23T00:13:24;89.25;71.00;42.25
77413;PMS7003;66486;49.992;19.164;2023-03-23T00:15:50;88.75;69.50;40.00
77413;PMS7003;66486;49.992;19.164;2023-03-23T00:18:20;96.50;72.25;45.00
77413;PMS7003;66486;49.992;19.164;2023-03-23T00:20:54;86.00;69.25;41.50
77413;PMS7003;66486;49.992;19.164;2023-03-23T00:23:23;88.50;70.50;42.00
77413;PMS7003;66486;49.992;19.164;2023-03-23T00:25:51;78.75;64.00;36.25
77413;PMS7003;66486;49.992;19.164;2023-03-23T00:28:25;83.25;66.25;39.00
77413;PMS7003;66486;49.992;19.164;2023-03-23T00:30:56;88.00;67.75;41.50
77413;PMS7003;66486;49.992;19.164;2023-03-23T00:33:33;81.75;66.25;39.00
77413;PMS7003;66486;49.992;19.164;2023-03-23T00:36:12;87.25;70.25;39.25
77413;PMS7003;66486;49.992;19.164;2023-03-23T00:38:40;96.50;75.75;42.25
77413;PMS7003;66486;49.992;19.164;2023-03-23T00:41:07;91.25;66.25;40.25
77413;PMS7003;66486;49.992;19.164;2023-03-23T00:43:37;83.50;68.50;43.00
77413;PMS7003;66486;49.992;19.164;2023-03-23T00:46:04;75.25;58.25;22.50
77413;PMS7003;66486;49.992;19.164;2023-03-23T00:48:38;93.00;66.25;40.50
77413;PMS7003;66486;49.992;19.164;2023-03-23T00:51:10;86.75;68.50;42.00
77413;PMS7003;66486;49.992;19.164;2023-03-23T00:53:40;96.50;75.00;40.00
77413;PMS7003;66486;49.992;19.164;2023-03-23T00:56:07;95.75;74.50;44.25
77413;PMS7003;66486;49.992;19.164;2023-03-23T00:58:34;101.25;78.25;44.50
77413;PMS7003;66486;49.992;19.164;2023-03-23T01:01:01;101.50;77.50;45.50
77413;PMS7003;66486;49.992;19.164;2023-03-23T01:03:28;105.25;77.50;43.50
77413;PMS7003;66486;49.992;19.164;2023-03-23T01:05:54;93.50;75.00;45.75
77413;PMS7003;66486;49.992;19.164;2023-03-23T01:08:21;98.75;78.00;45.50
77413;PMS7003;66486;49.992;19.164;2023-03-23T01:10:48;103.25;81.25;46.00
77413;PMS7003;66486;49.992;19.164;2023-03-23T01:13:15;99.50;78.00;45.75
77413;PMS7003;66486;49.992;19.164;2023-03-23T01:15:42;102.25;77.75;46.00
77413;PMS7003;66486;49.992;19.164;2023-03-23T01:18:09;97.50;77.50;42.00
77413;PMS7003;66486;49.992;19.164;2023-03-23T01:20:35;91.25;74.75;43.50
77413;PMS7003;66486;49.992;19.164;2023-03-23T01:23:02;93.50;71.00;40.50
77413;PMS7003;66486;49.992;19.164;2023-03-23T01:25:30;93.75;73.50;42.00
77413;PMS7003;66486;49.992;19.164;2023-03-23T01:27:58;80.25;63.75;37.00
77413;PMS7003;66486;49.992;19.164;2023-03-23T01:30:24;79.00;64.25;40.75
77413;PMS7003;66486;49.992;19.164;2023-03-23T01:32:52;83.75;68.00;41.00
77413;PMS7003;66486;49.992;19.164;2023-03-23T01:35:19;92.00;70.50;40.50
77413;PMS7003;66486;49.992;19.164;2023-03-23T01:37:45;88.25;69.00;40.00
77413;PMS7003;66486;49.992;19.164;2023-03-23T01:40:13;93.25;72.25;42.00
77413;PMS7003;66486;49.992;19.164;2023-03-23T01:42:40;85.00;68.50;37.50
77413;PMS7003;66486;49.992;19.164;2023-03-23T01:45:23;85.50;68.25;42.25
77413;PMS7003;66486;49.992;19.164;2023-03-23T01:47:55;89.75;70.00;42.25
77413;PMS7003;66486;49.992;19.164;2023-03-23T01:50:26;73.00;61.00;36.00
77413;PMS7003;66486;49.992;19.164;2023-03-23T01:52:55;67.50;55.00;31.50
77413;PMS7003;66486;49.992;19.164;2023-03-23T01:55:25;74.75;63.75;39.75
77413;PMS7003;66486;49.992;19.164;2023-03-23T01:57:53;86.50;67.25;39.50
77413;PMS7003;66486;49.992;19.164;2023-03-23T02:00:21;77.25;62.50;36.75
77413;PMS7003;66486;49.992;19.164;2023-03-23T02:02:48;83.00;67.75;38.00
77413;PMS7003;66486;49.992;19.164;2023-03-23T02:05:21;88.75;69.25;42.50
77413;PMS7003;66486;49.992;19.164;2023-03-23T02:07:58;88.75;69.75;39.00
77413;PMS7003;66486;49.992;19.164;2023-03-23T02:10:31;91.25;69.25;39.25
77413;PMS7003;66486;49.992;19.164;2023-03-23T02:12:58;89.25;69.00;39.75
77413;PMS7003;66486;49.992;19.164;2023-03-23T02:15:27;95.75;77.75;49.00
77413;PMS7003;66486;49.992;19.164;2023-03-23T02:18:13;95.00;73.00;42.00
77413;PMS7003;66486;49.992;19.164;2023-03-23T02:26:07;103.50;79.75;46.50
77413;PMS7003;66486;49.992;19.164;2023-03-23T02:28:48;91.25;70.25;42.75
77413;PMS7003;66486;49.992;19.164;2023-03-23T02:34:10;93.25;75.25;46.50
77413;PMS7003;66486;49.992;19.164;2023-03-23T02:37:00;93.25;72.50;42.25
77413;PMS7003;66486;49.992;19.164;2023-03-23T02:39:37;88.25;72.00;44.50
77413;PMS7003;66486;49.992;19.164;2023-03-23T02:42:06;102.75;78.25;48.00
77413;PMS7003;66486;49.992;19.164;2023-03-23T02:44:36;96.75;76.00;44.50
77413;PMS7003;66486;49.992;19.164;2023-03-23T02:47:06;98.50;75.25;46.75
77413;PMS7003;66486;49.992;19.164;2023-03-23T02:49:37;98.00;76.00;43.00
77413;PMS7003;66486;49.992;19.164;2023-03-23T02:52:08;98.00;77.50;44.75
77413;PMS7003;66486;49.992;19.164;2023-03-23T02:54:41;99.50;79.00;47.25
77413;PMS7003;66486;49.992;19.164;2023-03-23T02:57:09;99.25;77.00;45.00
77413;PMS7003;66486;49.992;19.164;2023-03-23T02:59:36;92.00;72.00;42.00
77413;PMS7003;66486;49.992;19.164;2023-03-23T03:02:10;91.67;72.00;46.00
77413;PMS7003;66486;49.992;19.164;2023-03-23T03:04:41;98.33;77.33;45.00
77413;PMS7003;66486;49.992;19.164;2023-03-23T03:07:38;85.75;69.50;42.25
77413;PMS7003;66486;49.992;19.164;2023-03-23T03:10:12;96.25;75.75;45.75
77413;PMS7003;66486;49.992;19.164;2023-03-23T03:17:54;95.75;75.50;42.50
77413;PMS7003;66486;49.992;19.164;2023-03-23T03:20:29;89.75;68.50;42.00
77413;PMS7003;66486;49.992;19.164;2023-03-23T03:22:57;85.50;68.50;41.50
77413;PMS7003;66486;49.992;19.164;2023-03-23T03:25:25;93.50;75.00;45.25
77413;PMS7003;66486;49.992;19.164;2023-03-23T03:27:52;83.00;69.25;43.50
77413;PMS7003;66486;49.992;19.164;2023-03-23T03:30:21;93.50;72.00;43.00
77413;PMS7003;66486;49.992;19.164;2023-03-23T03:32:51;84.75;65.75;32.00
77413;PMS7003;66486;49.992;19.164;2023-03-23T03:35:22;86.25;69.25;41.75
77413;PMS7003;66486;49.992;19.164;2023-03-23T03:37:49;61.25;52.50;36.00
77413;PMS7003;66486;49.992;19.164;2023-03-23T03:40:17;92.75;73.75;43.50
77413;PMS7003;66486;49.992;19.164;2023-03-23T03:42:46;85.75;68.50;40.00
77413;PMS7003;66486;49.992;19.164;2023-03-23T03:45:17;81.00;63.25;39.50
77413;PMS7003;66486;49.992;19.164;2023-03-23T03:47:44;87.50;69.50;43.25
77413;PMS7003;66486;49.992;19.164;2023-03-23T03:50:10;86.00;70.00;40.50
77413;PMS7003;66486;49.992;19.164;2023-03-23T03:52:37;86.00;68.50;40.00
77413;PMS7003;66486;49.992;19.164;2023-03-23T03:55:04;91.75;70.50;43.75
77413;PMS7003;66486;49.992;19.164;2023-03-23T03:57:32;83.25;66.25;39.25
77413;PMS7003;66486;49.992;19.164;2023-03-23T03:59:59;88.25;71.50;42.00
77413;PMS7003;66486;49.992;19.164;2023-03-23T04:02:24;82.67;66.00;37.67
77413;PMS7003;66486;49.992;19.164;2023-03-23T04:04:50;86.50;67.00;42.00
77413;PMS7003;66486;49.992;19.164;2023-03-23T04:07:19;85.00;66.25;41.00
77413;PMS7003;66486;49.992;19.164;2023-03-23T04:09:47;89.75;70.00;41.00
77413;PMS7003;66486;49.992;19.164;2023-03-23T04:12:13;87.25;69.25;42.00
77413;PMS7003;66486;49.992;19.164;2023-03-23T04:14:40;80.50;66.25;39.25
77413;PMS7003;66486;49.992;19.164;2023-03-23T04:17:06;72.33;60.33;37.67
77413;PMS7003;66486;49.992;19.164;2023-03-23T04:19:35;66.00;49.50;30.50
77413;PMS7003;66486;49.992;19.164;2023-03-23T04:22:02;86.50;66.50;39.75
77413;PMS7003;66486;49.992;19.164;2023-03-23T04:24:29;84.50;67.00;42.00
77413;PMS7003;66486;49.992;19.164;2023-03-23T04:26:58;91.00;70.50;42.00
77413;PMS7003;66486;49.992;19.164;2023-03-23T04:29:25;87.50;66.25;38.00
77413;PMS7003;66486;49.992;19.164;2023-03-23T04:31:52;61.75;53.25;33.25
77413;PMS7003;66486;49.992;19.164;2023-03-23T04:34:18;83.00;66.50;39.25
77413;PMS7003;66486;49.992;19.164;2023-03-23T04:36:44;79.00;66.50;36.00
77413;PMS7003;66486;49.992;19.164;2023-03-23T04:39:12;73.75;60.75;38.00
77413;PMS7003;66486;49.992;19.164;2023-03-23T04:41:39;81.25;65.75;39.25
77413;PMS7003;66486;49.992;19.164;2023-03-23T04:44:06;84.75;68.50;39.75
77413;PMS7003;66486;49.992;19.164;2023-03-23T04:46:32;78.25;64.00;39.25
77413;PMS7003;66486;49.992;19.164;2023-03-23T04:48:58;86.00;68.50;37.50
77413;PMS7003;66486;49.992;19.164;2023-03-23T04:51:25;90.67;70.00;41.33
77413;PMS7003;66486;49.992;19.164;2023-03-23T04:53:52;84.75;69.25;39.50
77413;PMS7003;66486;49.992;19.164;2023-03-23T04:56:19;86.75;69.50;41.75
77413;PMS7003;66486;49.992;19.164;2023-03-23T04:58:45;76.25;62.00;38.75
77413;PMS7003;66486;49.992;19.164;2023-03-23T05:01:11;79.75;65.50;39.25
77413;PMS7003;66486;49.992;19.164;2023-03-23T05:03:43;74.25;60.75;39.50
77413;PMS7003;66486;49.992;19.164;2023-03-23T05:06:10;77.00;62.75;38.00
77413;PMS7003;66486;49.992;19.164;2023-03-23T05:08:36;85.25;69.25;42.00
77413;PMS7003;66486;49.992;19.164;2023-03-23T05:11:04;63.50;53.75;34.00
77413;PMS7003;66486;49.992;19.164;2023-03-23T05:13:32;84.00;68.75;42.00
77413;PMS7003;66486;49.992;19.164;2023-03-23T05:15:58;78.75;62.50;30.75
77413;PMS7003;66486;49.992;19.164;2023-03-23T05:18:28;89.50;68.00;42.25
77413;PMS7003;66486;49.992;19.164;2023-03-23T05:20:54;72.67;58.33;34.00
77413;PMS7003;66486;49.992;19.164;2023-03-23T05:23:20;87.00;68.00;41.00
77413;PMS7003;66486;49.992;19.164;2023-03-23T05:25:56;87.50;69.25;42.00
77413;PMS7003;66486;49.992;19.164;2023-03-23T05:28:29;78.50;66.00;41.00
77413;PMS7003;66486;49.992;19.164;2023-03-23T05:30:56;89.25;70.00;41.00
77413;PMS7003;66486;49.992;19.164;2023-03-23T05:33:22;89.50;71.25;45.25
77413;PMS7003;66486;49.992;19.164;2023-03-23T05:35:48;78.33;63.00;37.00
77413;PMS7003;66486;49.992;19.164;2023-03-23T05:38:15;88.00;71.00;42.50
77413;PMS7003;66486;49.992;19.164;2023-03-23T05:40:41;85.67;67.00;42.00
77413;PMS7003;66486;49.992;19.164;2023-03-23T05:43:08;75.50;60.25;34.00
77413;PMS7003;66486;49.992;19.164;2023-03-23T05:45:34;71.25;60.00;34.25
77413;PMS7003;66486;49.992;19.164;2023-03-23T05:48:01;84.00;67.00;38.50
77413;PMS7003;66486;49.992;19.164;2023-03-23T05:50:27;93.67;74.33;42.00
77413;PMS7003;66486;49.992;19.164;2023-03-23T05:52:54;88.00;72.00;42.25
77413;PMS7003;66486;49.992;19.164;2023-03-23T05:55:21;89.50;71.00;44.00
77413;PMS7003;66486;49.992;19.164;2023-03-23T05:57:47;86.25;68.75;40.75
77413;PMS7003;66486;49.992;19.164;2023-03-23T06:00:13;81.33;65.67;38.33
77413;PMS7003;66486;49.992;19.164;2023-03-23T06:02:40;93.25;73.25;43.50
77413;PMS7003;66486;49.992;19.164;2023-03-23T06:05:09;85.50;68.00;39.50
77413;PMS7003;66486;49.992;19.164;2023-03-23T06:07:36;84.25;68.50;42.00
77413;PMS7003;66486;49.992;19.164;2023-03-23T06:10:04;68.80;57.40;32.60
77413;PMS7003;66486;49.992;19.164;2023-03-23T06:12:32;66.40;57.40;36.00
77413;PMS7003;66486;49.992;19.164;2023-03-23T06:14:58;62.40;51.60;31.60
77413;PMS7003;66486;49.992;19.164;2023-03-23T06:17:24;69.20;56.00;33.00
77413;PMS7003;66486;49.992;19.164;2023-03-23T06:19:50;54.75;48.50;30.50
77413;PMS7003;66486;49.992;19.164;2023-03-23T06:22:17;34.60;32.00;19.80
77413;PMS7003;66486;49.992;19.164;2023-03-23T06:24:43;34.60;32.80;21.80
77413;PMS7003;66486;49.992;19.164;2023-03-23T06:27:10;23.80;23.80;15.40
77413;PMS7003;66486;49.992;19.164;2023-03-23T06:29:36;24.80;24.00;18.80
77413;PMS7003;66486;49.992;19.164;2023-03-23T06:32:03;29.60;29.00;18.80
77413;PMS7003;66486;49.992;19.164;2023-03-23T06:34:30;24.00;22.40;15.60
77413;PMS7003;66486;49.992;19.164;2023-03-23T06:36:58;23.20;23.20;16.60
77413;PMS7003;66486;49.992;19.164;2023-03-23T06:39:25;27.80;25.40;17.80
77413;PMS7003;66486;49.992;19.164;2023-03-23T06:41:51;26.80;26.20;18.00
77413;PMS7003;66486;49.992;19.164;2023-03-23T06:44:17;22.75;22.75;18.00
77413;PMS7003;66486;49.992;19.164;2023-03-23T06:46:44;20.40;19.80;13.00
77413;PMS7003;66486;49.992;19.164;2023-03-23T06:49:10;14.00;14.00;10.00
77413;PMS7003;66486;49.992;19.164;2023-03-23T06:51:36;20.00;20.00;14.00
77413;PMS7003;66486;49.992;19.164;2023-03-23T06:54:02;29.00;27.20;20.80
77413;PMS7003;66486;49.992;19.164;2023-03-23T06:56:29;21.00;20.60;15.00
77413;PMS7003;66486;49.992;19.164;2023-03-23T06:58:56;17.80;17.80;14.20
77413;PMS7003;66486;49.992;19.164;2023-03-23T07:01:22;24.60;24.20;17.00
77413;PMS7003;66486;49.992;19.164;2023-03-23T07:03:48;22.00;19.80;12.80
77413;PMS7003;66486;49.992;19.164;2023-03-23T07:06:14;24.60;24.60;17.60
77413;PMS7003;66486;49.992;19.164;2023-03-23T07:08:41;25.40;23.00;16.00
77413;PMS7003;66486;49.992;19.164;2023-03-23T07:11:08;24.20;24.20;14.20
77413;PMS7003;66486;49.992;19.164;2023-03-23T07:13:36;18.40;18.20;9.40
77413;PMS7003;66486;49.992;19.164;2023-03-23T07:16:04;21.40;20.00;12.20
77413;PMS7003;66486;49.992;19.164;2023-03-23T07:18:31;20.20;20.20;13.20
77413;PMS7003;66486;49.992;19.164;2023-03-23T07:20:57;22.00;20.40;12.00
77413;PMS7003;66486;49.992;19.164;2023-03-23T07:23:23;19.80;19.80;14.60
77413;PMS7003;66486;49.992;19.164;2023-03-23T07:25:50;14.80;13.40;8.80
77413;PMS7003;66486;49.992;19.164;2023-03-23T07:28:16;19.00;19.00;13.75
77413;PMS7003;66486;49.992;19.164;2023-03-23T07:30:42;21.60;17.60;12.60
77413;PMS7003;66486;49.992;19.164;2023-03-23T07:33:08;18.50;16.00;13.00
77413;PMS7003;66486;49.992;19.164;2023-03-23T07:35:35;15.80;15.60;11.80
77413;PMS7003;66486;49.992;19.164;2023-03-23T07:38:02;19.80;19.40;14.00
77413;PMS7003;66486;49.992;19.164;2023-03-23T07:40:30;18.40;17.00;12.00
77413;PMS7003;66486;49.992;19.164;2023-03-23T07:42:59;23.00;21.80;16.80
77413;PMS7003;66486;49.992;19.164;2023-03-23T07:45:26;18.40;17.80;12.00
77413;PMS7003;66486;49.992;19.164;2023-03-23T07:47:52;21.60;20.80;14.60
77413;PMS7003;66486;49.992;19.164;2023-03-23T07:50:19;15.80;15.80;12.60
77413;PMS7003;66486;49.992;19.164;2023-03-23T07:52:56;12.20;9.80;5.00
77413;PMS7003;66486;49.992;19.164;2023-03-23T07:55:24;16.20;16.20;11.20
77413;PMS7003;66486;49.992;19.164;2023-03-23T07:57:51;11.20;11.20;8.80
77413;PMS7003;66486;49.992;19.164;2023-03-23T08:00:19;8.00;7.00;5.40
77413;PMS7003;66486;49.992;19.164;2023-03-23T08:02:48;15.80;15.80;12.20
77413;PMS7003;66486;49.992;19.164;2023-03-23T08:05:16;9.50;9.50;7.50
77413;PMS7003;66486;49.992;19.164;2023-03-23T08:07:44;17.40;16.80;10.40
77413;PMS7003;66486;49.992;19.164;2023-03-23T08:10:11;12.00;11.50;8.50
77413;PMS7003;66486;49.992;19.164;2023-03-23T08:12:38;10.00;10.00;8.75
77413;PMS7003;66486;49.992;19.164;2023-03-23T08:15:05;9.50;9.50;8.00
77413;PMS7003;66486;49.992;19.164;2023-03-23T08:17:32;9.25;7.50;6.00
77413;PMS7003;66486;49.992;19.164;2023-03-23T08:20:00;5.50;5.50;4.75
77413;PMS7003;66486;49.992;19.164;2023-03-23T08:22:26;9.50;9.50;7.50
77413;PMS7003;66486;49.992;19.164;2023-03-23T08:24:54;12.25;10.00;7.25
77413;PMS7003;66486;49.992;19.164;2023-03-23T08:27:20;11.67;11.67;9.67
77413;PMS7003;66486;49.992;19.164;2023-03-23T08:29:47;8.00;8.00;5.50
77413;PMS7003;66486;49.992;19.164;2023-03-23T08:32:13;8.00;8.00;6.75
77413;PMS7003;66486;49.992;19.164;2023-03-23T08:34:40;11.00;10.25;8.75
77413;PMS7003;66486;49.992;19.164;2023-03-23T08:37:07;10.00;10.00;7.50
77413;PMS7003;66486;49.992;19.164;2023-03-23T08:39:34;14.25;14.25;10.75
77413;PMS7003;66486;49.992;19.164;2023-03-23T08:42:00;10.67;10.67;9.00
77413;PMS7003;66486;49.992;19.164;2023-03-23T08:44:27;9.00;9.00;7.25
77413;PMS7003;66486;49.992;19.164;2023-03-23T08:46:53;6.50;6.50;6.00
77413;PMS7003;66486;49.992;19.164;2023-03-23T08:49:23;13.00;13.00;9.00
77413;PMS7003;66486;49.992;19.164;2023-03-23T08:51:50;6.25;6.25;5.50
77413;PMS7003;66486;49.992;19.164;2023-03-23T08:54:16;6.00;6.00;4.50
77413;PMS7003;66486;49.992;19.164;2023-03-23T08:56:42;10.50;10.00;7.00
77413;PMS7003;66486;49.992;19.164;2023-03-23T08:59:09;10.25;10.25;7.50
77413;PMS7003;66486;49.992;19.164;2023-03-23T09:01:35;6.75;6.75;5.75
77413;PMS7003;66486;49.992;19.164;2023-03-23T09:04:01;7.00;7.00;5.75
77413;PMS7003;66486;49.992;19.164;2023-03-23T09:06:27;9.33;8.33;6.00
77413;PMS7003;66486;49.992;19.164;2023-03-23T09:08:53;6.25;6.25;5.25
77413;PMS7003;66486;49.992;19.164;2023-03-23T09:11:21;7.50;7.50;6.00
77413;PMS7003;66486;49.992;19.164;2023-03-23T09:13:47;6.50;5.50;4.25
77413;PMS7003;66486;49.992;19.164;2023-03-23T09:16:13;6.00;6.00;5.00
77413;PMS7003;66486;49.992;19.164;2023-03-23T09:18:40;6.25;6.25;4.00
77413;PMS7003;66486;49.992;19.164;2023-03-23T09:21:06;7.00;6.33;5.00
77413;PMS7003;66486;49.992;19.164;2023-03-23T09:23:32;7.00;7.00;6.25
77413;PMS7003;66486;49.992;19.164;2023-03-23T09:26:01;3.67;3.67;2.00
77413;PMS7003;66486;49.992;19.164;2023-03-23T09:28:28;7.00;7.00;6.00
77413;PMS7003;66486;49.992;19.164;2023-03-23T09:30:56;3.75;3.50;3.00
77413;PMS7003;66486;49.992;19.164;2023-03-23T09:33:23;8.00;8.00;7.00
77413;PMS7003;66486;49.992;19.164;2023-03-23T09:35:49;6.75;6.75;6.00
77413;PMS7003;66486;49.992;19.164;2023-03-23T09:38:15;5.75;5.75;4.25
77413;PMS7003;66486;49.992;19.164;2023-03-23T09:46:25;6.50;6.00;3.50
77413;PMS7003;66486;49.992;19.164;2023-03-23T09:49:14;4.50;4.50;3.00
77413;PMS7003;66486;49.992;19.164;2023-03-23T09:52:28;8.50;8.50;6.00
77413;PMS7003;66486;49.992;19.164;2023-03-23T10:02:55;7.25;7.25;6.25
77413;PMS7003;66486;49.992;19.164;2023-03-23T10:05:41;5.25;5.25;3.75
77413;PMS7003;66486;49.992;19.164;2023-03-23T10:08:19;8.50;8.25;7.00
77413;PMS7003;66486;49.992;19.164;2023-03-23T10:11:03;8.25;8.00;6.50
77413;PMS7003;66486;49.992;19.164;2023-03-23T10:13:52;6.50;6.50;4.00
77413;PMS7003;66486;49.992;19.164;2023-03-23T10:16:24;4.00;4.00;3.00
77413;PMS7003;66486;49.992;19.164;2023-03-23T10:19:02;1.50;1.50;1.00
77413;PMS7003;66486;49.992;19.164;2023-03-23T10:21:51;8.00;7.50;6.00
77413;PMS7003;66486;49.992;19.164;2023-03-23T10:24:26;9.00;8.00;7.00
77413;PMS7003;66486;49.992;19.164;2023-03-23T10:27:07;6.50;6.50;4.00
77413;PMS7003;66486;49.992;19.164;2023-03-23T10:29:49;6.25;6.25;3.00
77413;PMS7003;66486;49.992;19.164;2023-03-23T10:32:36;7.75;7.75;7.00
77413;PMS7003;66486;49.992;19.164;2023-03-23T10:35:06;7.00;7.00;4.50
77413;PMS7003;66486;49.992;19.164;2023-03-23T10:37:43;6.50;5.50;5.00
77413;PMS7003;66486;49.992;19.164;2023-03-23T10:40:20;7.50;7.50;5.25
77413;PMS7003;66486;49.992;19.164;2023-03-23T10:42:49;9.00;9.00;7.75
77413;PMS7003;66486;49.992;19.164;2023-03-23T10:50:52;5.50;5.50;5.00
77413;PMS7003;66486;49.992;19.164;2023-03-23T10:56:02;3.75;3.75;3.00
77413;PMS7003;66486;49.992;19.164;2023-03-23T10:58:31;6.00;6.00;4.00
77413;PMS7003;66486;49.992;19.164;2023-03-23T11:00:59;4.00;4.00;3.00
77413;PMS7003;66486;49.992;19.164;2023-03-23T11:06:11;3.00;3.00;2.00
77413;PMS7003;66486;49.992;19.164;2023-03-23T11:08:58;4.50;4.50;3.00
77413;PMS7003;66486;49.992;19.164;2023-03-23T11:11:40;6.00;6.00;4.00
77413;PMS7003;66486;49.992;19.164;2023-03-23T11:17:01;3.50;3.50;3.50
77413;PMS7003;66486;49.992;19.164;2023-03-23T11:19:30;3.25;3.25;3.00
77413;PMS7003;66486;49.992;19.164;2023-03-23T11:22:07;6.00;6.00;3.00
77413;PMS7003;66486;49.992;19.164;2023-03-23T11:24:43;6.00;5.00;3.00
77413;PMS7003;66486;49.992;19.164;2023-03-23T11:27:11;4.00;3.75;3.00
77413;PMS7003;66486;49.992;19.164;2023-03-23T11:32:19;3.00;3.00;3.00
77413;PMS7003;66486;49.992;19.164;2023-03-23T11:34:53;2.75;2.75;1.75
77413;PMS7003;66486;49.992;19.164;2023-03-23T11:37:28;2.00;2.00;1.00
77413;PMS7003;66486;49.992;19.164;2023-03-23T11:39:58;1.50;1.50;1.25
77413;PMS7003;66486;49.992;19.164;2023-03-23T11:42:36;4.00;3.75;2.75
77413;PMS7003;66486;49.992;19.164;2023-03-23T11:45:24;3.50;3.50;3.00
77413;PMS7003;66486;49.992;19.164;2023-03-23T11:53:15;4.75;4.75;3.50
77413;PMS7003;66486;49.992;19.164;2023-03-23T11:55:53;5.75;5.50;3.50
77413;PMS7003;66486;49.992;19.164;2023-03-23T11:58:21;7.25;7.00;5.00
77413;PMS7003;66486;49.992;19.164;2023-03-23T12:00:55;4.00;4.00;3.50
77413;PMS7003;66486;49.992;19.164;2023-03-23T12:06:06;5.25;4.75;3.25
77413;PMS7003;66486;49.992;19.164;2023-03-23T12:14:16;3.25;3.00;3.00
77413;PMS7003;66486;49.992;19.164;2023-03-23T12:22:11;3.00;3.00;2.00
77413;PMS7003;66486;49.992;19.164;2023-03-23T12:24:48;4.25;3.00;2.00
77413;PMS7003;66486;49.992;19.164;2023-03-23T12:27:42;5.75;5.75;3.00
77413;PMS7003;66486;49.992;19.164;2023-03-23T12:35:25;6.00;4.00;3.00
77413;PMS7003;66486;49.992;19.164;2023-03-23T12:43:38;4.25;4.25;3.25
77413;PMS7003;66486;49.992;19.164;2023-03-23T12:48:59;3.00;3.00;2.75
77413;PMS7003;66486;49.992;19.164;2023-03-23T12:51:39;2.00;2.00;2.00
77413;PMS7003;66486;49.992;19.164;2023-03-23T12:57:07;2.00;2.00;2.00
77413;PMS7003;66486;49.992;19.164;2023-03-23T13:02:29;2.00;2.00;2.00
77413;PMS7003;66486;49.992;19.164;2023-03-23T13:05:03;5.25;5.00;3.50
77413;PMS7003;66486;49.992;19.164;2023-03-23T13:07:46;3.00;3.00;2.75
77413;PMS7003;66486;49.992;19.164;2023-03-23T13:10:19;3.00;3.00;2.75
77413;PMS7003;66486;49.992;19.164;2023-03-23T13:12:47;3.00;3.00;2.50
77413;PMS7003;66486;49.992;19.164;2023-03-23T13:18:12;2.75;2.75;2.75
77413;PMS7003;66486;49.992;19.164;2023-03-23T13:23:46;3.25;3.25;3.00
77413;PMS7003;66486;49.992;19.164;2023-03-23T13:26:20;5.25;4.75;2.75
77413;PMS7003;66486;49.992;19.164;2023-03-23T13:31:24;3.00;3.00;2.25
77413;PMS7003;66486;49.992;19.164;2023-03-23T13:37:10;4.50;3.50;2.50
77413;PMS7003;66486;49.992;19.164;2023-03-23T13:49:55;4.25;4.25;3.00
77413;PMS7003;66486;49.992;19.164;2023-03-23T14:03:05;7.00;7.00;6.00
77413;PMS7003;66486;49.992;19.164;2023-03-23T14:10:55;7.25;7.25;5.50
77413;PMS7003;66486;49.992;19.164;2023-03-23T14:13:57;9.25;8.00;6.00
77413;PMS7003;66486;49.992;19.164;2023-03-23T14:16:25;9.75;8.75;6.25
77413;PMS7003;66486;49.992;19.164;2023-03-23T14:18:58;7.75;7.75;7.00
77413;PMS7003;66486;49.992;19.164;2023-03-23T14:21:31;3.00;3.00;3.00
77413;PMS7003;66486;49.992;19.164;2023-03-23T14:24:08;6.25;6.25;6.00
77413;PMS7003;66486;49.992;19.164;2023-03-23T14:26:40;7.25;7.25;5.50
77413;PMS7003;66486;49.992;19.164;2023-03-23T14:29:10;7.50;7.50;6.25
77413;PMS7003;66486;49.992;19.164;2023-03-23T14:31:38;9.25;9.00;6.75
77413;PMS7003;66486;49.992;19.164;2023-03-23T14:34:12;6.50;6.50;4.75
77413;PMS7003;66486;49.992;19.164;2023-03-23T14:36:40;0.00;0.00;0.00
77413;PMS7003;66486;49.992;19.164;2023-03-23T14:42:15;7.25;6.75;4.25
77413;PMS7003;66486;49.992;19.164;2023-03-23T14:44:45;6.00;6.00;4.00
77413;PMS7003;66486;49.992;19.164;2023-03-23T14:47:16;9.25;9.25;7.00
77413;PMS7003;66486;49.992;19.164;2023-03-23T14:49:56;7.75;6.50;4.00
77413;PMS7003;66486;49.992;19.164;2023-03-23T14:52:28;10.50;10.50;7.00
77413;PMS7003;66486;49.992;19.164;2023-03-23T14:57:56;13.25;12.25;9.25
77413;PMS7003;66486;49.992;19.164;2023-03-23T15:00:34;9.00;8.50;7.00
77413;PMS7003;66486;49.992;19.164;2023-03-23T15:03:05;10.25;9.75;7.25
77413;PMS7003;66486;49.992;19.164;2023-03-23T15:05:37;10.00;8.50;8.25
77413;PMS7003;66486;49.992;19.164;2023-03-23T15:08:12;13.00;12.25;9.25
77413;PMS7003;66486;49.992;19.164;2023-03-23T15:11:07;11.50;11.50;8.75
77413;PMS7003;66486;49.992;19.164;2023-03-23T15:13:44;10.75;10.75;8.00
77413;PMS7003;66486;49.992;19.164;2023-03-23T15:16:30;8.00;7.50;6.25
77413;PMS7003;66486;49.992;19.164;2023-03-23T15:19:04;7.25;7.00;3.00
77413;PMS7003;66486;49.992;19.164;2023-03-23T15:21:46;9.75;9.75;7.50
77413;PMS7003;66486;49.992;19.164;2023-03-23T15:24:45;9.00;8.50;6.50
77413;PMS7003;66486;49.992;19.164;2023-03-23T15:29:32;11.00;8.00;6.00
77413;PMS7003;66486;49.992;19.164;2023-03-23T15:31:58;9.75;9.00;7.50
77413;PMS7003;66486;49.992;19.164;2023-03-23T15:34:32;9.25;9.25;7.50
77413;PMS7003;66486;49.992;19.164;2023-03-23T15:39:54;10.00;10.00;7.00
77413;PMS7003;66486;49.992;19.164;2023-03-23T15:42:23;8.00;8.00;6.00
77413;PMS7003;66486;49.992;19.164;2023-03-23T15:47:38;3.00;3.00;2.00
77413;PMS7003;66486;49.992;19.164;2023-03-23T15:52:52;10.00;9.25;6.75
77413;PMS7003;66486;49.992;19.164;2023-03-23T15:55:22;9.75;9.75;7.75
77413;PMS7003;66486;49.992;19.164;2023-03-23T15:57:52;8.50;8.50;6.00
77413;PMS7003;66486;49.992;19.164;2023-03-23T16:00:21;9.75;9.75;8.00
77413;PMS7003;66486;49.992;19.164;2023-03-23T16:02:49;11.25;11.25;9.00
77413;PMS7003;66486;49.992;19.164;2023-03-23T16:05:20;15.00;14.50;9.50
77413;PMS7003;66486;49.992;19.164;2023-03-23T16:07:46;9.50;9.50;8.00
77413;PMS7003;66486;49.992;19.164;2023-03-23T16:10:18;10.33;10.00;8.00
77413;PMS7003;66486;49.992;19.164;2023-03-23T16:12:46;10.25;10.00;8.75
77413;PMS7003;66486;49.992;19.164;2023-03-23T16:15:12;11.00;11.00;8.25
77413;PMS7003;66486;49.992;19.164;2023-03-23T16:17:39;10.75;10.00;7.00
77413;PMS7003;66486;49.992;19.164;2023-03-23T16:20:15;13.00;12.00;10.00